Decoded Metar for YCDU ( in ) (IATA:) | Meteo·Mobile Aviation Weather
aviador You're here:

YCDU Decoded Metar

in
Report Time2018-11-12 22:00:00
UTC Time2018-11-12 22:31:20
Flight Rules mvfr MVFR
Wind230° at 12 kt
W.Decomp.*RWY 17: 6.0 kt HW 10.4 kt RCW
RWY 29: 6.0 kt HW 10.4 kt LCW
W.Rank230° ranks 12
Current wind is above 230° avg. (11.9)
Visibility8000 m
Phenomena:N/A
Clouds:Overcast 014 Hf
Expected CloudBase > 400 ft AGL from Temp-Dew spread
Ceiling1,400 ft
Temp16°C
Dew Point15°C (94% RH)
AAT13.3°C
QNH1014 hPa
Raw Report
METAR YCDU 122200Z AUTO 23012KT 8000 // OVC014 16/15 Q1014=

Extra information for YCDU:More info

Social comments